sensor_id;sensor_type;location;lat;lon;timestamp;pressure;altitude;pressure_sealevel;temperature;humidity
30110;BME280;14965;50.660;13.226;2023-03-01T00:07:12;95911.28;;;-7.51;79.33
30110;BME280;14965;50.660;13.226;2023-03-01T00:14:35;95914.75;;;-7.50;79.58
30110;BME280;14965;50.660;13.226;2023-03-01T00:17:56;95914.19;;;-7.47;80.08
30110;BME280;14965;50.660;13.226;2023-03-01T00:25:13;95915.66;;;-7.55;79.30
30110;BME280;14965;50.660;13.226;2023-03-01T00:32:57;95906.19;;;-7.66;79.27
30110;BME280;14965;50.660;13.226;2023-03-01T00:36:10;95909.97;;;-7.67;78.79
30110;BME280;14965;50.660;13.226;2023-03-01T00:42:32;95908.88;;;-7.80;78.24
30110;BME280;14965;50.660;13.226;2023-03-01T01:26:27;95895.94;;;-8.06;78.74
30110;BME280;14965;50.660;13.226;2023-03-01T01:29:47;95896.19;;;-8.07;78.87
30110;BME280;14965;50.660;13.226;2023-03-01T01:42:53;95886.03;;;-8.24;77.34
30110;BME280;14965;50.660;13.226;2023-03-01T01:45:56;95882.34;;;-8.28;77.12
30110;BME280;14965;50.660;13.226;2023-03-01T01:56:36;95886.03;;;-8.38;76.69
30110;BME280;14965;50.660;13.226;2023-03-01T02:07:13;95861.59;;;-8.50;79.34
30110;BME280;14965;50.660;13.226;2023-03-01T04:11:53;95801.53;;;-8.95;77.94
30110;BME280;14965;50.660;13.226;2023-03-01T04:16:09;95790.81;;;-8.95;77.86
30110;BME280;14965;50.660;13.226;2023-03-01T04:23:06;95792.69;;;-8.96;78.58
30110;BME280;14965;50.660;13.226;2023-03-01T04:33:17;95794.16;;;-9.04;77.05
30110;BME280;14965;50.660;13.226;2023-03-01T04:36:04;95792.00;;;-9.01;77.40
30110;BME280;14965;50.660;13.226;2023-03-01T04:39:38;95793.38;;;-9.04;77.04
30110;BME280;14965;50.660;13.226;2023-03-01T04:42:55;95798.22;;;-9.06;76.44
30110;BME280;14965;50.660;13.226;2023-03-01T04:46:18;95796.91;;;-9.09;76.18
30110;BME280;14965;50.660;13.226;2023-03-01T04:49:29;95792.13;;;-9.12;76.00
30110;BME280;14965;50.660;13.226;2023-03-01T04:52:18;95787.09;;;-9.13;75.95
30110;BME280;14965;50.660;13.226;2023-03-01T04:55:12;95782.03;;;-9.15;76.19
30110;BME280;14965;50.660;13.226;2023-03-01T04:57:45;95793.59;;;-9.19;75.76
30110;BME280;14965;50.660;13.226;2023-03-01T05:00:19;95786.16;;;-9.22;75.83
30110;BME280;14965;50.660;13.226;2023-03-01T05:02:53;95788.31;;;-9.24;75.54
30110;BME280;14965;50.660;13.226;2023-03-01T05:05:24;95778.91;;;-9.22;75.98
30110;BME280;14965;50.660;13.226;2023-03-01T05:07:58;95774.88;;;-9.19;75.70
30110;BME280;14965;50.660;13.226;2023-03-01T05:10:30;95772.25;;;-9.24;76.46
30110;BME280;14965;50.660;13.226;2023-03-01T05:13:02;95772.91;;;-9.33;76.04
30110;BME280;14965;50.660;13.226;2023-03-01T05:20:05;95776.09;;;-9.31;76.72
30110;BME280;14965;50.660;13.226;2023-03-01T05:22:55;95774.53;;;-9.32;76.70
30110;BME280;14965;50.660;13.226;2023-03-01T05:25:33;95779.88;;;-9.32;76.81
30110;BME280;14965;50.660;13.226;2023-03-01T05:28:13;95769.44;;;-9.33;76.18
30110;BME280;14965;50.660;13.226;2023-03-01T05:42:48;95774.97;;;-9.43;75.90
30110;BME280;14965;50.660;13.226;2023-03-01T05:45:47;95766.41;;;-9.45;76.07
30110;BME280;14965;50.660;13.226;2023-03-01T05:48:47;95765.13;;;-9.48;75.43
30110;BME280;14965;50.660;13.226;2023-03-01T05:51:24;95761.66;;;-9.48;75.24
30110;BME280;14965;50.660;13.226;2023-03-01T05:54:14;95759.25;;;-9.50;75.26
30110;BME280;14965;50.660;13.226;2023-03-01T06:04:51;95761.38;;;-9.47;76.01
30110;BME280;14965;50.660;13.226;2023-03-01T06:07:53;95764.25;;;-9.43;76.00
30110;BME280;14965;50.660;13.226;2023-03-01T06:18:28;95776.38;;;-9.32;76.01
30110;BME280;14965;50.660;13.226;2023-03-01T06:21:35;95778.78;;;-9.31;75.61
30110;BME280;14965;50.660;13.226;2023-03-01T06:31:21;95772.88;;;-9.27;75.42
30110;BME280;14965;50.660;13.226;2023-03-01T06:37:51;95776.59;;;-9.29;75.06
30110;BME280;14965;50.660;13.226;2023-03-01T06:40:44;95774.94;;;-9.24;75.67
30110;BME280;14965;50.660;13.226;2023-03-01T06:43:48;95778.84;;;-9.17;76.02
30110;BME280;14965;50.660;13.226;2023-03-01T06:46:47;95785.13;;;-9.08;76.04
30110;BME280;14965;50.660;13.226;2023-03-01T06:49:34;95787.44;;;-9.01;76.23
30110;BME280;14965;50.660;13.226;2023-03-01T06:52:12;95777.75;;;-8.97;76.24
30110;BME280;14965;50.660;13.226;2023-03-01T06:58:41;95779.09;;;-8.81;76.54
30110;BME280;14965;50.660;13.226;2023-03-01T07:01:26;95771.47;;;-8.73;76.18
30110;BME280;14965;50.660;13.226;2023-03-01T07:04:41;95768.09;;;-8.65;77.51
30110;BME280;14965;50.660;13.226;2023-03-01T07:08:06;95766.84;;;-8.54;77.48
30110;BME280;14965;50.660;13.226;2023-03-01T07:10:58;95772.72;;;-8.52;77.58
30110;BME280;14965;50.660;13.226;2023-03-01T07:13:29;95769.63;;;-8.45;78.25
30110;BME280;14965;50.660;13.226;2023-03-01T07:15:59;95764.38;;;-8.37;78.64
30110;BME280;14965;50.660;13.226;2023-03-01T07:18:25;95760.72;;;-8.27;78.50
30110;BME280;14965;50.660;13.226;2023-03-01T07:20:55;95770.75;;;-8.19;78.38
30110;BME280;14965;50.660;13.226;2023-03-01T07:23:27;95768.38;;;-8.07;78.78
30110;BME280;14965;50.660;13.226;2023-03-01T07:25:57;95764.38;;;-7.95;79.11
30110;BME280;14965;50.660;13.226;2023-03-01T07:28:24;95766.38;;;-7.87;79.18
30110;BME280;14965;50.660;13.226;2023-03-01T07:30:52;95765.97;;;-7.81;78.95
30110;BME280;14965;50.660;13.226;2023-03-01T07:33:21;95761.97;;;-7.69;79.25
30110;BME280;14965;50.660;13.226;2023-03-01T07:35:59;95759.38;;;-7.61;78.63
30110;BME280;14965;50.660;13.226;2023-03-01T07:38:26;95767.53;;;-7.52;79.17
30110;BME280;14965;50.660;13.226;2023-03-01T07:41:01;95774.25;;;-7.41;79.64
30110;BME280;14965;50.660;13.226;2023-03-01T07:43:28;95762.19;;;-7.30;79.43
30110;BME280;14965;50.660;13.226;2023-03-01T07:45:54;95767.31;;;-7.19;79.27
30110;BME280;14965;50.660;13.226;2023-03-01T07:48:20;95763.63;;;-7.10;79.74
30110;BME280;14965;50.660;13.226;2023-03-01T07:50:49;95769.06;;;-7.01;79.65
30110;BME280;14965;50.660;13.226;2023-03-01T07:53:16;95758.69;;;-6.94;80.08
30110;BME280;14965;50.660;13.226;2023-03-01T07:55:44;95759.22;;;-6.83;80.29
30110;BME280;14965;50.660;13.226;2023-03-01T07:58:11;95753.13;;;-6.75;80.66
30110;BME280;14965;50.660;13.226;2023-03-01T08:00:37;95753.69;;;-6.64;80.26
30110;BME280;14965;50.660;13.226;2023-03-01T08:03:03;95751.03;;;-6.56;81.09
30110;BME280;14965;50.660;13.226;2023-03-01T08:05:30;95748.88;;;-6.45;81.03
30110;BME280;14965;50.660;13.226;2023-03-01T08:07:56;95739.78;;;-6.35;81.14
30110;BME280;14965;50.660;13.226;2023-03-01T08:10:22;95734.91;;;-6.24;81.16
30110;BME280;14965;50.660;13.226;2023-03-01T08:12:51;95740.03;;;-6.14;81.07
30110;BME280;14965;50.660;13.226;2023-03-01T08:15:18;95742.09;;;-6.03;81.29
30110;BME280;14965;50.660;13.226;2023-03-01T08:17:44;95739.75;;;-5.95;81.68
30110;BME280;14965;50.660;13.226;2023-03-01T08:20:11;95737.84;;;-5.86;82.19
30110;BME280;14965;50.660;13.226;2023-03-01T08:22:37;95727.13;;;-5.78;82.12
30110;BME280;14965;50.660;13.226;2023-03-01T08:25:03;95731.44;;;-5.68;82.42
30110;BME280;14965;50.660;13.226;2023-03-01T08:27:29;95734.94;;;-5.59;82.82
30110;BME280;14965;50.660;13.226;2023-03-01T08:29:55;95727.66;;;-5.49;83.19
30110;BME280;14965;50.660;13.226;2023-03-01T08:32:25;95726.53;;;-5.40;83.15
30110;BME280;14965;50.660;13.226;2023-03-01T08:34:51;95728.94;;;-5.30;83.41
30110;BME280;14965;50.660;13.226;2023-03-01T08:37:20;95721.66;;;-5.20;83.71
30110;BME280;14965;50.660;13.226;2023-03-01T08:39:51;95720.25;;;-5.09;83.88
30110;BME280;14965;50.660;13.226;2023-03-01T08:42:19;95720.41;;;-4.97;83.83
30110;BME280;14965;50.660;13.226;2023-03-01T08:44:48;95714.66;;;-4.87;84.17
30110;BME280;14965;50.660;13.226;2023-03-01T08:47:14;95725.59;;;-4.74;84.09
30110;BME280;14965;50.660;13.226;2023-03-01T08:49:42;95720.66;;;-4.64;84.29
30110;BME280;14965;50.660;13.226;2023-03-01T08:52:08;95722.03;;;-4.49;84.31
30110;BME280;14965;50.660;13.226;2023-03-01T08:54:34;95714.25;;;-4.33;84.32
30110;BME280;14965;50.660;13.226;2023-03-01T08:57:02;95709.56;;;-4.15;84.34
30110;BME280;14965;50.660;13.226;2023-03-01T08:59:28;95703.94;;;-4.02;84.20
30110;BME280;14965;50.660;13.226;2023-03-01T09:01:54;95704.53;;;-3.87;84.46
30110;BME280;14965;50.660;13.226;2023-03-01T09:04:24;95703.97;;;-3.72;84.61
30110;BME280;14965;50.660;13.226;2023-03-01T09:06:51;95693.84;;;-3.54;84.71
30110;BME280;14965;50.660;13.226;2023-03-01T09:09:17;95697.56;;;-3.38;84.16
30110;BME280;14965;50.660;13.226;2023-03-01T09:11:44;95695.03;;;-3.22;84.12
30110;BME280;14965;50.660;13.226;2023-03-01T09:14:11;95697.00;;;-3.10;83.96
30110;BME280;14965;50.660;13.226;2023-03-01T09:16:37;95693.59;;;-2.98;83.90
30110;BME280;14965;50.660;13.226;2023-03-01T09:19:04;95693.28;;;-2.85;84.05
30110;BME280;14965;50.660;13.226;2023-03-01T09:21:30;95684.13;;;-2.71;83.86
30110;BME280;14965;50.660;13.226;2023-03-01T09:23:57;95686.97;;;-2.56;83.53
30110;BME280;14965;50.660;13.226;2023-03-01T09:26:24;95679.00;;;-2.40;83.51
30110;BME280;14965;50.660;13.226;2023-03-01T09:28:53;95679.50;;;-2.26;83.03
30110;BME280;14965;50.660;13.226;2023-03-01T09:31:23;95683.09;;;-2.09;83.06
30110;BME280;14965;50.660;13.226;2023-03-01T09:33:52;95683.56;;;-1.95;81.93
30110;BME280;14965;50.660;13.226;2023-03-01T09:36:20;95681.53;;;-1.86;81.73
30110;BME280;14965;50.660;13.226;2023-03-01T09:38:47;95683.34;;;-1.78;80.82
30110;BME280;14965;50.660;13.226;2023-03-01T09:41:43;95674.19;;;-1.61;79.89
30110;BME280;14965;50.660;13.226;2023-03-01T09:44:20;95681.75;;;-1.42;80.05
30110;BME280;14965;50.660;13.226;2023-03-01T09:46:47;95677.88;;;-1.29;80.38
30110;BME280;14965;50.660;13.226;2023-03-01T09:49:18;95678.38;;;-1.11;80.75
30110;BME280;14965;50.660;13.226;2023-03-01T09:51:55;95677.31;;;-0.94;80.16
30110;BME280;14965;50.660;13.226;2023-03-01T09:54:22;95686.19;;;-0.81;79.21
30110;BME280;14965;50.660;13.226;2023-03-01T09:57:01;95681.94;;;-0.66;79.35
30110;BME280;14965;50.660;13.226;2023-03-01T09:59:44;95673.13;;;-0.47;79.02
30110;BME280;14965;50.660;13.226;2023-03-01T10:02:26;95675.97;;;-0.28;79.13
30110;BME280;14965;50.660;13.226;2023-03-01T10:05:09;95678.72;;;-0.12;76.39
30110;BME280;14965;50.660;13.226;2023-03-01T10:07:47;95670.47;;;0.00;74.36
30110;BME280;14965;50.660;13.226;2023-03-01T10:10:28;95663.34;;;0.11;72.68
30110;BME280;14965;50.660;13.226;2023-03-01T10:13:05;95657.03;;;0.23;72.43
30110;BME280;14965;50.660;13.226;2023-03-01T10:15:45;95659.28;;;0.37;72.79
30110;BME280;14965;50.660;13.226;2023-03-01T10:18:25;95656.03;;;0.47;71.15
30110;BME280;14965;50.660;13.226;2023-03-01T10:21:15;95664.09;;;0.59;71.92
30110;BME280;14965;50.660;13.226;2023-03-01T10:23:58;95667.47;;;0.72;72.26
30110;BME280;14965;50.660;13.226;2023-03-01T10:40:08;95662.31;;;1.25;68.21
30110;BME280;14965;50.660;13.226;2023-03-01T10:42:45;95650.88;;;1.35;68.65
30110;BME280;14965;50.660;13.226;2023-03-01T10:45:30;95657.59;;;1.41;65.90
30110;BME280;14965;50.660;13.226;2023-03-01T10:48:12;95655.88;;;1.33;64.87
30110;BME280;14965;50.660;13.226;2023-03-01T10:50:43;95646.06;;;1.29;63.80
30110;BME280;14965;50.660;13.226;2023-03-01T10:53:25;95653.59;;;1.16;63.38
30110;BME280;14965;50.660;13.226;2023-03-01T10:56:08;95651.16;;;1.11;64.56
30110;BME280;14965;50.660;13.226;2023-03-01T10:58:37;95652.03;;;1.15;64.63
30110;BME280;14965;50.660;13.226;2023-03-01T11:01:24;95644.28;;;1.17;63.28
30110;BME280;14965;50.660;13.226;2023-03-01T11:04:11;95645.03;;;1.14;62.76
30110;BME280;14965;50.660;13.226;2023-03-01T11:06:41;95647.38;;;1.15;63.53
30110;BME280;14965;50.660;13.226;2023-03-01T11:09:18;95646.38;;;1.23;63.60
30110;BME280;14965;50.660;13.226;2023-03-01T11:11:53;95635.84;;;1.22;59.91
30110;BME280;14965;50.660;13.226;2023-03-01T11:14:22;95638.13;;;1.20;58.76
30110;BME280;14965;50.660;13.226;2023-03-01T11:17:00;95637.28;;;1.16;58.16
30110;BME280;14965;50.660;13.226;2023-03-01T11:19:26;95627.91;;;1.13;58.77
30110;BME280;14965;50.660;13.226;2023-03-01T11:22:00;95626.75;;;1.14;58.46
30110;BME280;14965;50.660;13.226;2023-03-01T11:24:35;95624.03;;;1.14;57.81
30110;BME280;14965;50.660;13.226;2023-03-01T11:27:15;95623.97;;;1.11;59.00
30110;BME280;14965;50.660;13.226;2023-03-01T11:29:46;95617.81;;;1.14;57.68
30110;BME280;14965;50.660;13.226;2023-03-01T11:32:15;95625.25;;;1.17;58.45
30110;BME280;14965;50.660;13.226;2023-03-01T11:34:47;95620.00;;;1.28;58.26
30110;BME280;14965;50.660;13.226;2023-03-01T11:37:28;95626.25;;;1.28;56.33
30110;BME280;14965;50.660;13.226;2023-03-01T11:40:05;95623.09;;;1.26;56.33
30110;BME280;14965;50.660;13.226;2023-03-01T11:42:48;95626.09;;;1.21;57.65
30110;BME280;14965;50.660;13.226;2023-03-01T11:45:22;95622.59;;;1.20;57.91
30110;BME280;14965;50.660;13.226;2023-03-01T11:48:09;95630.81;;;1.24;58.79
30110;BME280;14965;50.660;13.226;2023-03-01T11:50:47;95625.03;;;1.26;58.00
30110;BME280;14965;50.660;13.226;2023-03-01T11:53:48;95619.53;;;1.22;57.84
30110;BME280;14965;50.660;13.226;2023-03-01T11:56:28;95620.72;;;1.24;57.99
30110;BME280;14965;50.660;13.226;2023-03-01T11:59:41;95619.53;;;1.22;57.39
30110;BME280;14965;50.660;13.226;2023-03-01T12:05:41;95604.91;;;1.30;60.78
30110;BME280;14965;50.660;13.226;2023-03-01T12:08:15;95610.84;;;1.36;60.74
30110;BME280;14965;50.660;13.226;2023-03-01T12:10:52;95612.00;;;1.35;60.42
30110;BME280;14965;50.660;13.226;2023-03-01T12:14:21;95620.09;;;1.31;64.50
30110;BME280;14965;50.660;13.226;2023-03-01T12:20:14;95609.59;;;0.91;68.37
30110;BME280;14965;50.660;13.226;2023-03-01T12:23:32;95609.00;;;0.82;70.37
30110;BME280;14965;50.660;13.226;2023-03-01T12:26:23;95605.81;;;0.76;69.42
30110;BME280;14965;50.660;13.226;2023-03-01T12:40:09;95589.75;;;0.71;70.20
30110;BME280;14965;50.660;13.226;2023-03-01T12:42:49;95602.22;;;0.72;69.59
30110;BME280;14965;50.660;13.226;2023-03-01T12:45:50;95594.41;;;0.51;67.49
30110;BME280;14965;50.660;13.226;2023-03-01T12:48:41;95590.25;;;0.38;70.33
30110;BME280;14965;50.660;13.226;2023-03-01T12:51:14;95588.94;;;0.32;71.49
30110;BME280;14965;50.660;13.226;2023-03-01T12:53:47;95595.06;;;0.29;72.57
30110;BME280;14965;50.660;13.226;2023-03-01T12:56:17;95594.72;;;0.30;72.96
30110;BME280;14965;50.660;13.226;2023-03-01T12:58:57;95584.66;;;0.31;72.87
30110;BME280;14965;50.660;13.226;2023-03-01T13:01:36;95581.47;;;0.29;73.22
30110;BME280;14965;50.660;13.226;2023-03-01T13:04:21;95580.78;;;0.32;74.08
30110;BME280;14965;50.660;13.226;2023-03-01T13:07:04;95582.50;;;0.40;73.90
30110;BME280;14965;50.660;13.226;2023-03-01T13:09:50;95580.66;;;0.44;74.05
30110;BME280;14965;50.660;13.226;2023-03-01T13:12:51;95578.34;;;0.46;73.30
30110;BME280;14965;50.660;13.226;2023-03-01T13:15:33;95582.97;;;0.42;72.78
30110;BME280;14965;50.660;13.226;2023-03-01T13:18:04;95574.81;;;0.42;74.23
30110;BME280;14965;50.660;13.226;2023-03-01T13:20:34;95586.09;;;0.44;73.73
30110;BME280;14965;50.660;13.226;2023-03-01T13:23:24;95581.94;;;0.31;72.83
30110;BME280;14965;50.660;13.226;2023-03-01T13:26:12;95578.69;;;0.25;74.98
30110;BME280;14965;50.660;13.226;2023-03-01T13:28:54;95571.25;;;0.22;75.49
30110;BME280;14965;50.660;13.226;2023-03-01T13:32:00;95573.19;;;0.21;76.61
30110;BME280;14965;50.660;13.226;2023-03-01T13:34:51;95571.06;;;0.31;76.47
30110;BME280;14965;50.660;13.226;2023-03-01T13:37:33;95575.50;;;0.39;77.04
30110;BME280;14965;50.660;13.226;2023-03-01T13:42:52;95586.97;;;0.48;76.25
30110;BME280;14965;50.660;13.226;2023-03-01T13:45:36;95579.88;;;0.43;75.51
30110;BME280;14965;50.660;13.226;2023-03-01T13:48:11;95584.94;;;0.45;76.15
30110;BME280;14965;50.660;13.226;2023-03-01T13:50:48;95580.94;;;0.39;77.38
30110;BME280;14965;50.660;13.226;2023-03-01T13:53:19;95580.50;;;0.37;77.55
30110;BME280;14965;50.660;13.226;2023-03-01T13:55:51;95573.88;;;0.34;77.44
30110;BME280;14965;50.660;13.226;2023-03-01T13:58:23;95575.84;;;0.37;78.15
30110;BME280;14965;50.660;13.226;2023-03-01T14:00:57;95575.44;;;0.35;77.79
30110;BME280;14965;50.660;13.226;2023-03-01T14:03:24;95572.25;;;0.33;77.69
30110;BME280;14965;50.660;13.226;2023-03-01T14:06:05;95569.50;;;0.30;77.52
30110;BME280;14965;50.660;13.226;2023-03-01T14:08:32;95570.28;;;0.30;77.82
30110;BME280;14965;50.660;13.226;2023-03-01T14:12:03;95574.97;;;0.33;77.74
30110;BME280;14965;50.660;13.226;2023-03-01T14:14:57;95576.06;;;0.29;77.17
30110;BME280;14965;50.660;13.226;2023-03-01T14:17:55;95581.47;;;0.29;77.93
30110;BME280;14965;50.660;13.226;2023-03-01T14:20:27;95568.25;;;0.27;77.71
30110;BME280;14965;50.660;13.226;2023-03-01T14:22:57;95571.69;;;0.24;77.46
30110;BME280;14965;50.660;13.226;2023-03-01T14:25:27;95569.50;;;0.30;77.96
30110;BME280;14965;50.660;13.226;2023-03-01T14:28:02;95571.47;;;0.33;77.81
30110;BME280;14965;50.660;13.226;2023-03-01T14:30:34;95575.72;;;0.30;77.98
30110;BME280;14965;50.660;13.226;2023-03-01T14:33:06;95570.97;;;0.27;78.06
30110;BME280;14965;50.660;13.226;2023-03-01T14:35:34;95575.56;;;0.23;78.12
30110;BME280;14965;50.660;13.226;2023-03-01T14:38:01;95562.34;;;0.21;78.11
30110;BME280;14965;50.660;13.226;2023-03-01T14:40:30;95557.59;;;0.18;78.40
30110;BME280;14965;50.660;13.226;2023-03-01T14:43:00;95561.88;;;0.19;78.58
30110;BME280;14965;50.660;13.226;2023-03-01T14:45:30;95555.31;;;0.20;78.47
30110;BME280;14965;50.660;13.226;2023-03-01T14:47:59;95554.44;;;0.16;77.54
30110;BME280;14965;50.660;13.226;2023-03-01T14:50:40;95556.38;;;0.16;78.25
30110;BME280;14965;50.660;13.226;2023-03-01T14:53:17;95544.38;;;0.17;78.79
30110;BME280;14965;50.660;13.226;2023-03-01T14:55:48;95544.44;;;0.20;79.19
30110;BME280;14965;50.660;13.226;2023-03-01T14:58:20;95541.38;;;0.22;79.03
30110;BME280;14965;50.660;13.226;2023-03-01T15:00:51;95549.09;;;0.20;79.23
30110;BME280;14965;50.660;13.226;2023-03-01T15:03:30;95544.88;;;0.22;79.60
30110;BME280;14965;50.660;13.226;2023-03-01T15:05:57;95544.88;;;0.22;79.43
30110;BME280;14965;50.660;13.226;2023-03-01T15:08:26;95537.44;;;0.19;78.58
30110;BME280;14965;50.660;13.226;2023-03-01T15:11:00;95531.59;;;0.17;79.38
30110;BME280;14965;50.660;13.226;2023-03-01T15:13:31;95533.94;;;0.19;79.39
30110;BME280;14965;50.660;13.226;2023-03-01T15:16:06;95528.88;;;0.17;79.87
30110;BME280;14965;50.660;13.226;2023-03-01T15:18:35;95535.44;;;0.16;79.59
30110;BME280;14965;50.660;13.226;2023-03-01T15:21:16;95523.28;;;0.10;79.86
30110;BME280;14965;50.660;13.226;2023-03-01T15:23:50;95526.69;;;0.07;79.29
30110;BME280;14965;50.660;13.226;2023-03-01T15:26:25;95521.97;;;0.04;79.65
30110;BME280;14965;50.660;13.226;2023-03-01T15:28:54;95521.53;;;0.02;79.56
30110;BME280;14965;50.660;13.226;2023-03-01T15:31:26;95527.69;;;-0.01;79.17
30110;BME280;14965;50.660;13.226;2023-03-01T15:34:07;95521.47;;;-0.02;79.53
30110;BME280;14965;50.660;13.226;2023-03-01T15:36:41;95524.97;;;-0.01;79.31
30110;BME280;14965;50.660;13.226;2023-03-01T15:39:36;95528.41;;;-0.04;79.56
30110;BME280;14965;50.660;13.226;2023-03-01T15:42:07;95532.25;;;-0.05;79.60
30110;BME280;14965;50.660;13.226;2023-03-01T15:44:36;95522.91;;;-0.08;79.28
30110;BME280;14965;50.660;13.226;2023-03-01T15:47:22;95533.75;;;-0.08;79.04
30110;BME280;14965;50.660;13.226;2023-03-01T15:49:54;95530.97;;;-0.11;79.01
30110;BME280;14965;50.660;13.226;2023-03-01T15:57:38;95526.69;;;-0.12;79.16
30110;BME280;14965;50.660;13.226;2023-03-01T16:00:09;95537.53;;;-0.12;79.22
30110;BME280;14965;50.660;13.226;2023-03-01T16:02:37;95523.50;;;-0.14;79.54
30110;BME280;14965;50.660;13.226;2023-03-01T16:05:04;95525.81;;;-0.16;79.91
30110;BME280;14965;50.660;13.226;2023-03-01T16:07:30;95523.00;;;-0.20;80.29
30110;BME280;14965;50.660;13.226;2023-03-01T16:09:56;95523.34;;;-0.21;80.41
30110;BME280;14965;50.660;13.226;2023-03-01T16:12:23;95522.47;;;-0.26;80.80
30110;BME280;14965;50.660;13.226;2023-03-01T16:14:49;95516.16;;;-0.30;80.80
30110;BME280;14965;50.660;13.226;2023-03-01T16:19:52;95509.09;;;-0.34;80.26
30110;BME280;14965;50.660;13.226;2023-03-01T16:22:18;95513.72;;;-0.35;80.33
30110;BME280;14965;50.660;13.226;2023-03-01T16:24:44;95521.44;;;-0.37;80.59
30110;BME280;14965;50.660;13.226;2023-03-01T16:27:09;95524.78;;;-0.43;80.77
30110;BME280;14965;50.660;13.226;2023-03-01T16:29:35;95528.13;;;-0.50;81.38
30110;BME280;14965;50.660;13.226;2023-03-01T16:32:02;95535.03;;;-0.53;81.27
30110;BME280;14965;50.660;13.226;2023-03-01T16:34:28;95537.56;;;-0.60;81.45
30110;BME280;14965;50.660;13.226;2023-03-01T16:36:55;95535.22;;;-0.61;81.44
30110;BME280;14965;50.660;13.226;2023-03-01T16:39:21;95537.81;;;-0.65;81.33
30110;BME280;14965;50.660;13.226;2023-03-01T16:41:47;95536.59;;;-0.67;81.11
30110;BME280;14965;50.660;13.226;2023-03-01T16:44:14;95548.16;;;-0.70;80.99
30110;BME280;14965;50.660;13.226;2023-03-01T16:46:42;95554.63;;;-0.75;80.66
30110;BME280;14965;50.660;13.226;2023-03-01T16:49:08;95547.50;;;-0.80;80.18
30110;BME280;14965;50.660;13.226;2023-03-01T16:51:34;95547.78;;;-0.85;79.79
30110;BME280;14965;50.660;13.226;2023-03-01T16:54:01;95551.53;;;-0.89;79.51
30110;BME280;14965;50.660;13.226;2023-03-01T16:56:33;95558.47;;;-0.92;79.43
30110;BME280;14965;50.660;13.226;2023-03-01T16:58:59;95554.50;;;-0.94;79.57
30110;BME280;14965;50.660;13.226;2023-03-01T17:01:28;95561.41;;;-0.97;79.30
30110;BME280;14965;50.660;13.226;2023-03-01T17:03:54;95552.28;;;-1.05;79.57
30110;BME280;14965;50.660;13.226;2023-03-01T17:06:21;95563.06;;;-1.08;79.53
30110;BME280;14965;50.660;13.226;2023-03-01T17:08:47;95554.47;;;-1.10;79.40
30110;BME280;14965;50.660;13.226;2023-03-01T17:11:17;95550.88;;;-1.14;79.59
30110;BME280;14965;50.660;13.226;2023-03-01T17:13:46;95563.53;;;-1.18;79.82
30110;BME280;14965;50.660;13.226;2023-03-01T17:16:16;95563.13;;;-1.20;79.96
30110;BME280;14965;50.660;13.226;2023-03-01T17:18:43;95564.38;;;-1.30;79.57
30110;BME280;14965;50.660;13.226;2023-03-01T17:21:09;95567.09;;;-1.30;79.53
30110;BME280;14965;50.660;13.226;2023-03-01T17:23:38;95574.34;;;-1.34;79.81
30110;BME280;14965;50.660;13.226;2023-03-01T17:26:05;95578.53;;;-1.37;79.79
30110;BME280;14965;50.660;13.226;2023-03-01T17:28:35;95568.50;;;-1.36;79.86
30110;BME280;14965;50.660;13.226;2023-03-01T17:31:04;95582.72;;;-1.39;80.06
30110;BME280;14965;50.660;13.226;2023-03-01T17:33:31;95579.91;;;-1.43;80.42
30110;BME280;14965;50.660;13.226;2023-03-01T17:35:58;95570.19;;;-1.44;80.62
30110;BME280;14965;50.660;13.226;2023-03-01T17:38:24;95570.19;;;-1.44;80.62
30110;BME280;14965;50.660;13.226;2023-03-01T17:40:51;95576.31;;;-1.47;80.57
30110;BME280;14965;50.660;13.226;2023-03-01T17:43:17;95567.22;;;-1.55;80.81
30110;BME280;14965;50.660;13.226;2023-03-01T17:45:45;95570.03;;;-1.63;80.80
30110;BME280;14965;50.660;13.226;2023-03-01T17:48:11;95563.28;;;-1.69;81.36
30110;BME280;14965;50.660;13.226;2023-03-01T17:50:38;95569.06;;;-1.71;81.90
30110;BME280;14965;50.660;13.226;2023-03-01T17:53:04;95571.44;;;-1.82;81.50
30110;BME280;14965;50.660;13.226;2023-03-01T17:55:30;95568.19;;;-1.87;81.69
30110;BME280;14965;50.660;13.226;2023-03-01T17:57:56;95570.78;;;-1.91;82.04
30110;BME280;14965;50.660;13.226;2023-03-01T18:00:23;95576.09;;;-1.94;82.81
30110;BME280;14965;50.660;13.226;2023-03-01T18:02:52;95569.09;;;-1.95;83.07
30110;BME280;14965;50.660;13.226;2023-03-01T18:05:18;95573.94;;;-2.01;83.57
30110;BME280;14965;50.660;13.226;2023-03-01T18:07:44;95570.13;;;-2.12;83.49
30110;BME280;14965;50.660;13.226;2023-03-01T18:10:10;95569.69;;;-2.27;83.36
30110;BME280;14965;50.660;13.226;2023-03-01T18:12:37;95562.34;;;-2.38;83.99
30110;BME280;14965;50.660;13.226;2023-03-01T18:15:04;95550.41;;;-2.49;85.02
30110;BME280;14965;50.660;13.226;2023-03-01T18:17:30;95561.69;;;-2.47;84.54
30110;BME280;14965;50.660;13.226;2023-03-01T18:19:58;95559.56;;;-2.42;84.47
30110;BME280;14965;50.660;13.226;2023-03-01T18:22:24;95564.06;;;-2.34;84.17
30110;BME280;14965;50.660;13.226;2023-03-01T18:24:50;95566.31;;;-2.36;84.70
30110;BME280;14965;50.660;13.226;2023-03-01T18:27:16;95565.53;;;-2.36;84.99
30110;BME280;14965;50.660;13.226;2023-03-01T18:29:43;95557.97;;;-2.43;84.73
30110;BME280;14965;50.660;13.226;2023-03-01T18:32:09;95567.88;;;-2.47;85.26
30110;BME280;14965;50.660;13.226;2023-03-01T18:34:35;95569.91;;;-2.44;85.35
30110;BME280;14965;50.660;13.226;2023-03-01T18:37:02;95558.78;;;-2.42;85.06
30110;BME280;14965;50.660;13.226;2023-03-01T18:39:28;95560.22;;;-2.45;84.81
30110;BME280;14965;50.660;13.226;2023-03-01T18:41:54;95563.16;;;-2.62;84.60
30110;BME280;14965;50.660;13.226;2023-03-01T18:44:20;95560.53;;;-2.83;85.21
30110;BME280;14965;50.660;13.226;2023-03-01T18:46:46;95551.28;;;-2.94;85.06
30110;BME280;14965;50.660;13.226;2023-03-01T18:49:13;95551.28;;;-2.94;85.42
30110;BME280;14965;50.660;13.226;2023-03-01T18:51:41;95550.94;;;-3.05;86.32
30110;BME280;14965;50.660;13.226;2023-03-01T18:54:10;95549.66;;;-3.08;86.85